首页
METAR-TAF:

METAR-TAF

机场 :

賓漢頓, 紐約州, 美国

纬度: 42-12-28N, 经度: 075-58-53W, 海拔: 496米

当前天气观测

该预报发布于1小时和9分钟前的05:53 UTC
风速5节,风向西南
温度 20°C
湿度 94%
气压 1017 hPa
能見度: 16.1公里
阴天层高于8500英尺

METAR: KBGM 170553Z AUTO 22005KT 10SM OVC085 20/19 A3002 RMK AO2 RAB07E18 SLP153 P0000 60001 T02000189 10217 20200 58010

时间: 03:02 (07:02 UTC)

预报

该预报发布于1小时和22分钟前的05:40 UTC
预报有效从17日的 06点(UTC)到 18日的 06点(UTC)
风速6节,风向南转西南
能見度: 10公里
多云层高于7000英尺
从 17日的 1700点(UTC)
风速5节,风向西
能見度: 9.7公里
阴天层高于5000英尺
小阵雨
短暂存在
从 17日的 19点(UTC)到 17日的 23点(UTC)
能見度: 4.8公里
阴天层高于2500英尺, 积雨云.
雷暴, 雨
从 17日的 2300点(UTC)
风速3节,风向多变
能見度: 4.8公里
阴天层高于1200英尺
小阵雨, 轻雾
从 18日的 0400点(UTC)
风速4节,风向东北
能見度: 6.4公里
阴天层高于900英尺
轻雾

TAF: KBGM 170540Z 1706/1806 21006KT P6SM BKN070 FM171700 26005KT 6SM -SHRA OVC050 TEMPO 1719/1723 3SM TSRA OVC025CB FM172300 VRB03KT 3SM -SHRA BR OVC012 FM180400 05004KT 4SM BR OVC009

超过4000个机场的气象观测和天气预报(METAR&TAF报告)。

可查询的气象台以黄色和红色小点在地图上表示。

将鼠标移到小点上方,可查看气象台名称。

然后点击查看天气观测和预报。

如需切换地图:点击带黑十字的绿色按钮放大地图;点击带横线的绿色按钮缩小地图;或者点击绿色箭头查看邻近地区的地图。


METAR-TAF: